createdAt,value
2023-05-06T00:00:13.484Z,4.70
2023-05-06T00:02:45.291Z,4.60
2023-05-06T00:05:15.246Z,4.73
2023-05-06T00:07:44.595Z,4.40
2023-05-06T00:10:14.033Z,3.77
2023-05-06T00:12:43.281Z,4.67
2023-05-06T00:15:14.205Z,4.60
2023-05-06T00:17:43.529Z,4.83
2023-05-06T00:20:13.477Z,4.80
2023-05-06T00:22:42.681Z,4.70
2023-05-06T00:25:12.139Z,4.57
2023-05-06T00:27:41.397Z,4.13
2023-05-06T00:30:12.109Z,4.40
2023-05-06T00:32:42.873Z,3.90
2023-05-06T00:35:12.603Z,4.70
2023-05-06T00:37:41.856Z,4.23
2023-05-06T00:40:12.444Z,4.90
2023-05-06T00:42:41.670Z,4.30
2023-05-06T00:45:12.223Z,4.53
2023-05-06T00:47:45.124Z,3.93
2023-05-06T00:50:14.599Z,3.90
2023-05-06T00:52:44.041Z,4.20
2023-05-06T00:55:13.497Z,4.20
2023-05-06T00:57:44.998Z,3.40
2023-05-06T01:00:16.037Z,4.70
2023-05-06T01:02:47.874Z,4.27
2023-05-06T01:05:19.370Z,3.30
2023-05-06T01:07:58.369Z,3.67
2023-05-06T01:10:35.322Z,3.97
2023-05-06T01:13:09.340Z,3.70
2023-05-06T01:15:45.540Z,4.10
2023-05-06T01:18:19.412Z,3.83
2023-05-06T01:20:51.211Z,3.93
2023-05-06T01:23:22.196Z,4.33
2023-05-06T01:25:52.845Z,3.67
2023-05-06T01:28:22.116Z,4.00
2023-05-06T01:30:59.420Z,3.90
2023-05-06T01:33:37.091Z,3.87
2023-05-06T01:36:17.249Z,4.83
2023-05-06T01:38:54.651Z,3.70
2023-05-06T01:41:26.433Z,3.43
2023-05-06T01:43:55.857Z,3.80
2023-05-06T01:46:26.248Z,3.60
2023-05-06T01:48:56.728Z,4.10
2023-05-06T01:51:26.373Z,3.50
2023-05-06T01:53:57.093Z,3.70
2023-05-06T01:56:27.295Z,3.97
2023-05-06T01:58:57.104Z,3.87
2023-05-06T02:01:27.379Z,3.70
2023-05-06T02:03:56.742Z,3.57
2023-05-06T02:06:25.991Z,3.70
2023-05-06T02:08:56.541Z,3.40
2023-05-06T02:11:27.549Z,3.67
2023-05-06T02:14:03.584Z,3.20
2023-05-06T02:16:35.689Z,3.50
2023-05-06T02:19:06.258Z,3.47
2023-05-06T02:21:35.497Z,3.60
2023-05-06T02:24:07.186Z,3.50
2023-05-06T02:26:36.334Z,3.77
2023-05-06T02:29:06.476Z,3.73
2023-05-06T02:31:35.655Z,3.50
2023-05-06T02:34:04.841Z,3.50
2023-05-06T02:36:34.455Z,3.47
2023-05-06T02:39:04.917Z,3.20
2023-05-06T02:41:35.605Z,3.50
2023-05-06T02:44:04.760Z,3.00
2023-05-06T02:46:34.337Z,3.90
2023-05-06T02:49:03.651Z,3.20
2023-05-06T02:51:32.832Z,3.40
2023-05-06T02:54:01.931Z,3.57
2023-05-06T02:56:51.249Z,3.20
2023-05-06T02:59:20.448Z,3.70
2023-05-06T03:01:49.625Z,3.03
2023-05-06T03:04:18.768Z,3.30
2023-05-06T03:06:48.007Z,3.03
2023-05-06T03:09:17.273Z,6.30
2023-05-06T03:11:46.393Z,3.47
2023-05-06T03:14:17.282Z,3.03
2023-05-06T03:16:47.465Z,3.13
2023-05-06T03:19:17.138Z,3.13
2023-05-06T03:21:47.217Z,3.37
2023-05-06T03:24:17.600Z,3.17
2023-05-06T03:26:47.109Z,3.13
2023-05-06T03:29:18.129Z,3.43
2023-05-06T03:31:51.409Z,3.47
2023-05-06T03:34:22.420Z,3.20
2023-05-06T03:36:51.608Z,3.23
2023-05-06T03:39:21.181Z,3.33
2023-05-06T03:41:50.609Z,3.47
2023-05-06T03:44:22.030Z,3.47
2023-05-06T03:46:51.423Z,3.37
2023-05-06T03:49:21.785Z,3.13
2023-05-06T03:51:51.560Z,3.70
2023-05-06T03:54:21.100Z,3.60
2023-05-06T03:56:50.270Z,3.50
2023-05-06T03:59:19.716Z,3.30
2023-05-06T04:01:50.528Z,3.07
2023-05-06T04:04:19.955Z,3.70
2023-05-06T04:06:49.079Z,3.30
2023-05-06T04:09:18.335Z,3.13
2023-05-06T04:11:48.485Z,3.23
2023-05-06T04:14:19.356Z,2.80
2023-05-06T04:16:50.394Z,3.10
2023-05-06T04:19:19.663Z,3.07
2023-05-06T04:21:49.557Z,3.00
2023-05-06T04:24:20.175Z,3.33
2023-05-06T04:26:49.398Z,2.93
2023-05-06T04:29:18.941Z,2.87
2023-05-06T04:31:59.330Z,3.33
2023-05-06T04:34:33.611Z,3.07
2023-05-06T04:37:03.965Z,3.50
2023-05-06T04:39:42.532Z,3.40
2023-05-06T04:42:11.629Z,3.13
2023-05-06T04:44:50.479Z,3.03
2023-05-06T04:47:24.752Z,2.97
2023-05-06T04:49:55.127Z,3.60
2023-05-06T04:52:25.382Z,3.23
2023-05-06T04:54:54.549Z,3.20
2023-05-06T04:57:23.750Z,3.33
2023-05-06T04:59:55.598Z,2.97
2023-05-06T05:02:26.494Z,3.30
2023-05-06T05:04:55.811Z,3.00
2023-05-06T05:07:25.420Z,3.63
2023-05-06T05:09:54.631Z,3.50
2023-05-06T05:12:24.335Z,3.50
2023-05-06T05:14:55.260Z,3.30
2023-05-06T05:17:26.168Z,4.00
2023-05-06T05:19:55.389Z,3.50
2023-05-06T05:22:24.530Z,2.97
2023-05-06T05:24:53.784Z,3.07
2023-05-06T05:27:23.598Z,3.60
2023-05-06T05:29:53.659Z,3.57
2023-05-06T05:32:23.589Z,3.20
2023-05-06T05:34:54.354Z,3.27
2023-05-06T05:37:24.064Z,3.23
2023-05-06T05:39:53.514Z,3.33
2023-05-06T05:42:22.987Z,3.40
2023-05-06T05:44:52.280Z,3.40
2023-05-06T05:47:22.533Z,3.40
2023-05-06T05:49:51.713Z,3.03
2023-05-06T05:52:22.928Z,3.50
2023-05-06T05:54:52.221Z,3.40
2023-05-06T05:57:21.505Z,3.33
2023-05-06T05:59:50.677Z,3.30
2023-05-06T06:02:19.983Z,3.13
2023-05-06T06:04:49.400Z,3.67
2023-05-06T06:07:18.721Z,3.73
2023-05-06T06:09:50.689Z,3.30
2023-05-06T06:12:20.186Z,3.43
2023-05-06T06:14:49.372Z,3.10
2023-05-06T06:17:22.835Z,3.20
2023-05-06T06:19:57.433Z,2.90
2023-05-06T06:22:26.968Z,3.10
2023-05-06T06:24:59.497Z,3.20
2023-05-06T06:27:28.639Z,2.67
2023-05-06T06:29:57.898Z,2.57
2023-05-06T06:32:27.287Z,3.70
2023-05-06T06:34:56.534Z,4.37
2023-05-06T06:37:25.895Z,4.57
2023-05-06T06:39:55.167Z,2.80
2023-05-06T06:42:26.925Z,2.83
2023-05-06T06:45:12.060Z,2.40
2023-05-06T06:47:42.399Z,2.60
2023-05-06T06:50:12.705Z,2.80
2023-05-06T06:52:42.055Z,3.30
2023-05-06T06:55:12.043Z,2.90
2023-05-06T06:57:42.777Z,2.83
2023-05-06T07:00:13.009Z,5.70
2023-05-06T07:02:42.359Z,2.80
2023-05-06T07:05:12.116Z,2.07
2023-05-06T07:07:41.471Z,2.70
2023-05-06T07:10:11.202Z,3.27
2023-05-06T07:12:41.833Z,3.07
2023-05-06T07:15:11.909Z,3.70
2023-05-06T07:17:41.375Z,3.90
2023-05-06T07:20:11.853Z,3.13
2023-05-06T07:22:41.710Z,7.60
2023-05-06T07:25:11.515Z,2.73
2023-05-06T07:27:42.291Z,2.30
2023-05-06T07:30:12.286Z,3.07
2023-05-06T07:32:42.021Z,2.40
2023-05-06T07:35:11.526Z,3.37
2023-05-06T07:37:41.031Z,2.77
2023-05-06T07:40:11.517Z,2.30
2023-05-06T07:42:43.210Z,2.40
2023-05-06T07:45:13.141Z,2.47
2023-05-06T07:47:42.798Z,2.43
2023-05-06T07:50:12.760Z,2.53
2023-05-06T07:52:42.195Z,2.77
2023-05-06T07:55:11.898Z,2.10
2023-05-06T07:57:42.685Z,2.10
2023-05-06T08:00:13.173Z,2.37
2023-05-06T08:02:45.196Z,2.40
2023-05-06T08:05:14.951Z,2.27
2023-05-06T08:07:44.362Z,2.23
2023-05-06T08:10:13.569Z,2.13
2023-05-06T08:12:44.345Z,2.40
2023-05-06T08:15:13.909Z,2.53
2023-05-06T08:17:43.117Z,2.40
2023-05-06T08:20:13.439Z,2.37
2023-05-06T08:22:42.714Z,2.10
2023-05-06T08:25:12.353Z,2.10
2023-05-06T08:27:41.789Z,2.27
2023-05-06T08:30:13.852Z,2.53
2023-05-06T08:32:43.018Z,1.90
2023-05-06T08:35:12.368Z,2.13
2023-05-06T08:37:42.735Z,2.00
2023-05-06T08:40:19.677Z,1.97
2023-05-06T08:42:49.990Z,2.20
2023-05-06T08:45:21.235Z,1.90
2023-05-06T08:47:50.515Z,1.87
2023-05-06T08:50:20.080Z,2.20
2023-05-06T08:52:50.556Z,2.20
2023-05-06T08:55:21.162Z,1.93
2023-05-06T08:57:52.254Z,2.00
2023-05-06T09:00:23.396Z,2.30
2023-05-06T09:02:52.821Z,1.93
2023-05-06T09:05:22.309Z,2.00
2023-05-06T09:07:51.530Z,2.20
2023-05-06T09:10:20.772Z,2.60
2023-05-06T09:12:50.052Z,2.00
2023-05-06T09:15:19.261Z,2.03
2023-05-06T09:17:50.024Z,2.20
2023-05-06T09:20:19.440Z,2.00
2023-05-06T09:22:49.372Z,2.10
2023-05-06T09:25:19.188Z,2.20
2023-05-06T09:27:48.432Z,2.30
2023-05-06T09:30:17.821Z,2.50
2023-05-06T09:32:49.983Z,2.10
2023-05-06T09:35:20.578Z,2.30
2023-05-06T09:37:49.761Z,1.80
2023-05-06T09:40:19.134Z,2.30
2023-05-06T09:42:51.783Z,2.20
2023-05-06T09:45:20.889Z,2.23
2023-05-06T09:47:50.859Z,2.03
2023-05-06T09:50:23.384Z,2.40
2023-05-06T09:52:53.231Z,2.13
2023-05-06T09:55:23.722Z,1.93
2023-05-06T09:57:53.103Z,2.10
2023-05-06T10:00:28.254Z,2.20
2023-05-06T10:02:58.398Z,1.97
2023-05-06T10:05:30.546Z,2.10
2023-05-06T10:08:01.048Z,1.90
2023-05-06T10:10:31.445Z,2.10
2023-05-06T10:13:00.667Z,2.40
2023-05-06T10:15:30.964Z,2.10
2023-05-06T10:18:02.176Z,2.00
2023-05-06T10:20:35.628Z,2.13
2023-05-06T10:23:12.421Z,2.67
2023-05-06T10:25:44.535Z,1.93
2023-05-06T10:28:23.011Z,2.20
2023-05-06T10:30:58.719Z,1.97
2023-05-06T10:33:29.841Z,2.10
2023-05-06T10:36:13.540Z,1.70
2023-05-06T10:38:44.890Z,2.40
2023-05-06T10:41:14.956Z,2.23
2023-05-06T10:43:45.866Z,2.23
2023-05-06T10:46:16.406Z,2.30
2023-05-06T10:49:20.927Z,2.20
2023-05-06T10:52:13.457Z,2.40
2023-05-06T10:54:50.850Z,2.30
2023-05-06T10:57:22.061Z,2.70
2023-05-06T10:59:51.508Z,2.30
2023-05-06T11:02:21.675Z,1.90
2023-05-06T11:04:53.549Z,2.40
2023-05-06T11:07:27.513Z,2.47
2023-05-06T11:09:57.917Z,2.10
2023-05-06T11:12:50.320Z,2.27
2023-05-06T11:15:27.567Z,2.30
2023-05-06T11:17:57.676Z,2.50
2023-05-06T11:20:28.082Z,2.47
2023-05-06T11:22:58.843Z,2.50
2023-05-06T11:25:49.340Z,2.27
2023-05-06T11:28:18.621Z,2.43
2023-05-06T11:30:56.605Z,2.30
2023-05-06T11:33:29.081Z,2.30
2023-05-06T11:35:58.513Z,2.63
2023-05-06T11:38:40.380Z,2.97
2023-05-06T11:41:09.939Z,3.73
2023-05-06T11:43:39.310Z,3.03
2023-05-06T11:46:08.881Z,2.93
2023-05-06T11:48:38.045Z,2.87
2023-05-06T11:51:08.497Z,2.63
2023-05-06T11:53:39.467Z,2.20
2023-05-06T11:56:09.390Z,2.30
2023-05-06T11:58:38.699Z,2.50
2023-05-06T12:01:08.119Z,2.30
2023-05-06T12:03:37.594Z,2.83
2023-05-06T12:06:07.169Z,2.37
2023-05-06T12:08:39.432Z,2.80
2023-05-06T12:11:10.006Z,2.50
2023-05-06T12:13:40.864Z,2.47
2023-05-06T12:16:12.199Z,2.50
2023-05-06T12:18:41.989Z,2.50
2023-05-06T12:21:11.352Z,2.73
2023-05-06T12:23:52.629Z,3.93
2023-05-06T12:26:22.458Z,7.07
2023-05-06T12:29:08.233Z,2.60
2023-05-06T12:31:37.762Z,2.60
2023-05-06T12:34:07.276Z,3.03
2023-05-06T12:36:41.858Z,2.47
2023-05-06T12:39:13.184Z,3.00
2023-05-06T12:41:44.468Z,2.80
2023-05-06T12:44:41.766Z,2.73
2023-05-06T12:47:20.168Z,3.00
2023-05-06T12:49:51.932Z,3.10
2023-05-06T12:52:22.188Z,3.57
2023-05-06T12:54:53.405Z,3.70
2023-05-06T12:57:23.463Z,3.77
2023-05-06T12:59:53.985Z,3.70
2023-05-06T13:02:23.415Z,4.00
2023-05-06T13:04:52.731Z,3.00
2023-05-06T13:07:22.628Z,3.60
2023-05-06T13:09:53.402Z,3.30
2023-05-06T13:12:22.547Z,3.23
2023-05-06T13:14:51.733Z,3.60
2023-05-06T13:17:21.061Z,2.90
2023-05-06T13:19:50.272Z,3.10
2023-05-06T13:22:19.460Z,2.97
2023-05-06T13:24:48.628Z,3.37
2023-05-06T13:27:19.479Z,3.57
2023-05-06T13:29:48.998Z,4.30
2023-05-06T13:32:18.247Z,4.20
2023-05-06T13:34:47.518Z,4.57
2023-05-06T13:37:16.856Z,4.40
2023-05-06T13:39:46.088Z,4.20
2023-05-06T13:42:15.288Z,4.60
2023-05-06T13:44:45.968Z,4.30
2023-05-06T13:47:15.188Z,3.80
2023-05-06T13:49:44.288Z,4.07
2023-05-06T13:52:13.482Z,4.83
2023-05-06T13:54:42.787Z,4.47
2023-05-06T13:57:11.922Z,4.30
2023-05-06T13:59:41.097Z,4.27
2023-05-06T14:02:12.469Z,4.27
2023-05-06T14:04:41.787Z,4.03
2023-05-06T14:07:10.970Z,4.10
2023-05-06T14:09:40.418Z,4.47
2023-05-06T14:12:09.690Z,4.53
2023-05-06T14:14:38.798Z,4.70
2023-05-06T14:17:07.989Z,4.47
2023-05-06T14:19:38.670Z,4.47
2023-05-06T14:22:08.077Z,4.50
2023-05-06T14:24:37.394Z,4.00
2023-05-06T14:27:07.197Z,4.60
2023-05-06T14:29:37.005Z,3.83
2023-05-06T14:32:06.599Z,4.13
2023-05-06T14:34:38.011Z,4.00
2023-05-06T14:37:08.164Z,4.27
2023-05-06T14:39:37.272Z,3.97
2023-05-06T14:42:06.516Z,4.73
2023-05-06T14:44:35.910Z,4.03
2023-05-06T14:47:05.193Z,3.97
2023-05-06T14:49:34.460Z,4.33
2023-05-06T14:52:05.090Z,4.57
2023-05-06T14:54:34.288Z,4.20
2023-05-06T14:57:03.788Z,4.27
2023-05-06T14:59:32.989Z,5.07
2023-05-06T15:02:02.296Z,5.20
2023-05-06T15:04:31.632Z,5.00
2023-05-06T15:07:01.104Z,4.77
2023-05-06T15:09:32.335Z,5.50
2023-05-06T15:12:02.066Z,4.97
2023-05-06T15:14:31.377Z,4.50
2023-05-06T15:17:00.856Z,5.50
2023-05-06T15:19:33.742Z,4.70
2023-05-06T15:22:02.852Z,4.83
2023-05-06T15:24:33.664Z,5.63
2023-05-06T15:27:03.010Z,5.67
2023-05-06T15:29:32.324Z,5.30
2023-05-06T15:32:01.646Z,5.40
2023-05-06T15:34:30.753Z,5.77
2023-05-06T15:37:01.985Z,5.57
2023-05-06T15:39:35.978Z,5.83
2023-05-06T15:42:05.632Z,6.57
2023-05-06T15:44:35.039Z,6.40
2023-05-06T15:47:04.251Z,6.17
2023-05-06T15:49:51.499Z,6.03
2023-05-06T15:52:23.221Z,5.57
2023-05-06T15:54:58.939Z,5.70
2023-05-06T15:57:31.600Z,5.87
2023-05-06T16:00:00.911Z,6.17
2023-05-06T16:02:30.224Z,6.03
2023-05-06T16:04:59.832Z,5.53
2023-05-06T16:07:30.072Z,5.20
2023-05-06T16:10:00.819Z,5.07
2023-05-06T16:12:32.471Z,5.47
2023-05-06T16:15:03.477Z,5.17
2023-05-06T16:17:37.770Z,5.30
2023-05-06T16:20:10.634Z,4.97
2023-05-06T16:22:41.212Z,5.00
2023-05-06T16:25:12.188Z,4.77
2023-05-06T16:27:42.105Z,4.97
2023-05-06T16:30:12.360Z,5.13
2023-05-06T16:32:41.902Z,5.30
2023-05-06T16:35:11.721Z,5.50
2023-05-06T16:37:41.268Z,5.47
2023-05-06T16:40:13.420Z,5.73
2023-05-06T16:42:42.766Z,6.00
2023-05-06T16:45:13.031Z,5.53
2023-05-06T16:47:42.540Z,5.70
2023-05-06T16:50:12.508Z,5.93
2023-05-06T16:52:41.956Z,5.87
2023-05-06T16:55:12.959Z,5.97
2023-05-06T16:57:42.165Z,6.47
2023-05-06T17:00:12.662Z,6.47
2023-05-06T17:02:42.427Z,10.23
2023-05-06T17:05:12.008Z,7.13
2023-05-06T17:07:41.526Z,6.03
2023-05-06T17:10:13.380Z,5.93
2023-05-06T17:12:43.146Z,5.90
2023-05-06T17:15:13.331Z,6.07
2023-05-06T17:17:43.091Z,6.20
2023-05-06T17:20:13.055Z,6.67
2023-05-06T17:22:42.631Z,6.60
2023-05-06T17:25:14.801Z,6.20
2023-05-06T17:27:44.318Z,5.60
2023-05-06T17:30:15.440Z,6.40
2023-05-06T17:32:45.173Z,6.57
2023-05-06T17:35:15.307Z,6.50
2023-05-06T17:37:45.271Z,6.30
2023-05-06T17:40:16.681Z,6.50
2023-05-06T17:42:46.354Z,6.67
2023-05-06T17:45:16.035Z,6.43
2023-05-06T17:47:45.614Z,6.90
2023-05-06T17:50:15.446Z,6.57
2023-05-06T17:52:46.627Z,6.63
2023-05-06T17:55:18.048Z,6.50
2023-05-06T17:57:47.831Z,6.37
2023-05-06T18:00:18.935Z,6.40
2023-05-06T18:02:48.916Z,6.87
2023-05-06T18:05:18.994Z,6.77
2023-05-06T18:07:49.051Z,6.73
2023-05-06T18:10:20.461Z,6.90
2023-05-06T18:12:50.190Z,6.87
2023-05-06T18:15:20.048Z,7.33
2023-05-06T18:17:49.996Z,6.10
2023-05-06T18:20:19.921Z,6.97
2023-05-06T18:22:49.910Z,5.87
2023-05-06T18:25:21.307Z,6.43
2023-05-06T18:27:51.241Z,5.40
2023-05-06T18:30:21.134Z,5.50
2023-05-06T18:32:52.242Z,6.77
2023-05-06T18:35:22.818Z,5.97
2023-05-06T18:37:52.866Z,5.70
2023-05-06T18:40:24.000Z,5.90
2023-05-06T18:42:53.821Z,5.90
2023-05-06T18:45:23.749Z,5.20
2023-05-06T18:47:53.713Z,5.63
2023-05-06T18:50:24.066Z,5.57
2023-05-06T18:52:56.902Z,5.30
2023-05-06T18:55:28.351Z,5.73
2023-05-06T18:57:58.195Z,6.30
2023-05-06T19:00:29.343Z,5.93
2023-05-06T19:02:59.209Z,5.17
2023-05-06T19:05:29.199Z,5.87
2023-05-06T19:07:58.938Z,5.80
2023-05-06T19:10:30.247Z,6.00
2023-05-06T19:13:00.334Z,5.67
2023-05-06T19:15:30.510Z,5.90
2023-05-06T19:18:00.512Z,5.77
2023-05-06T19:20:30.435Z,5.70
2023-05-06T19:23:01.506Z,6.03
2023-05-06T19:25:32.806Z,6.60
2023-05-06T19:28:02.638Z,5.77
2023-05-06T19:30:34.747Z,6.67
2023-05-06T19:33:05.327Z,6.30
2023-05-06T19:35:35.873Z,6.33
2023-05-06T19:38:07.021Z,6.20
2023-05-06T19:40:38.317Z,6.70
2023-05-06T19:43:09.046Z,5.67
2023-05-06T19:45:39.041Z,5.57
2023-05-06T19:48:08.973Z,6.40
2023-05-06T19:50:38.752Z,6.30
2023-05-06T19:53:08.704Z,5.97
2023-05-06T19:55:40.006Z,8.13
2023-05-06T19:58:10.139Z,6.80
2023-05-06T20:00:39.989Z,6.40
2023-05-06T20:03:10.073Z,5.73
2023-05-06T20:05:40.188Z,5.93
2023-05-06T20:08:11.635Z,5.50
2023-05-06T20:10:43.197Z,5.30
2023-05-06T20:13:13.361Z,5.53
2023-05-06T20:15:43.580Z,5.47
2023-05-06T20:18:13.392Z,6.20
2023-05-06T20:20:43.735Z,6.03
2023-05-06T20:23:13.545Z,5.60
2023-05-06T20:25:44.933Z,5.73
2023-05-06T20:28:14.682Z,5.90
2023-05-06T20:30:44.552Z,5.77
2023-05-06T20:33:14.459Z,5.57
2023-05-06T20:35:44.399Z,5.20
2023-05-06T20:38:17.232Z,5.33
2023-05-06T20:40:49.268Z,5.93
2023-05-06T20:43:18.710Z,5.40
2023-05-06T20:45:48.089Z,4.90
2023-05-06T20:48:17.696Z,5.43
2023-05-06T20:50:47.030Z,4.77
2023-05-06T20:53:16.598Z,5.30
2023-05-06T20:55:45.760Z,5.20
2023-05-06T20:58:16.547Z,5.70
2023-05-06T21:00:45.895Z,5.03
2023-05-06T21:03:15.254Z,5.13
2023-05-06T21:05:44.525Z,5.10
2023-05-06T21:08:13.756Z,5.50
2023-05-06T21:10:43.151Z,4.67
2023-05-06T21:13:12.329Z,5.60
2023-05-06T21:15:42.974Z,5.80
2023-05-06T21:18:12.241Z,5.73
2023-05-06T21:20:41.754Z,5.70
2023-05-06T21:23:11.112Z,5.73
2023-05-06T21:25:40.295Z,5.63
2023-05-06T21:28:09.728Z,5.27
2023-05-06T21:30:39.307Z,5.13
2023-05-06T21:33:11.443Z,5.80
2023-05-06T21:35:40.681Z,5.30
2023-05-06T21:38:10.282Z,5.37
2023-05-06T21:40:39.599Z,5.33
2023-05-06T21:43:08.786Z,5.27
2023-05-06T21:45:38.097Z,5.43
2023-05-06T21:48:09.036Z,4.70
2023-05-06T21:50:38.344Z,4.90
2023-05-06T21:53:07.416Z,5.33
2023-05-06T21:55:37.576Z,5.23
2023-05-06T21:58:07.483Z,5.13
2023-05-06T22:00:36.943Z,5.47
2023-05-06T22:03:06.275Z,5.77
2023-05-06T22:05:36.922Z,5.47
2023-05-06T22:08:06.795Z,5.20
2023-05-06T22:10:36.237Z,4.70
2023-05-06T22:13:05.665Z,5.07
2023-05-06T22:15:34.936Z,5.30
2023-05-06T22:18:04.207Z,5.10
2023-05-06T22:20:33.371Z,4.83
2023-05-06T22:23:04.039Z,5.03
2023-05-06T22:25:33.542Z,4.80
2023-05-06T22:28:02.722Z,4.53
2023-05-06T22:30:31.881Z,4.40
2023-05-06T22:33:01.013Z,4.93
2023-05-06T22:35:30.270Z,3.93
2023-05-06T22:37:59.564Z,4.87
2023-05-06T22:40:30.399Z,4.70
2023-05-06T22:42:59.836Z,4.40
2023-05-06T22:45:28.961Z,4.80
2023-05-06T22:47:58.233Z,4.03
2023-05-06T22:50:27.594Z,4.13
2023-05-06T22:52:56.677Z,4.77
2023-05-06T22:55:25.863Z,4.53
2023-05-06T22:57:56.661Z,5.17
2023-05-06T23:00:26.065Z,4.87
2023-05-06T23:02:55.272Z,4.33
2023-05-06T23:05:24.616Z,3.97
2023-05-06T23:07:53.967Z,4.73
2023-05-06T23:10:23.062Z,4.10
2023-05-06T23:12:52.252Z,4.27
2023-05-06T23:15:23.238Z,4.30
2023-05-06T23:17:52.399Z,4.40
2023-05-06T23:20:21.682Z,4.37
2023-05-06T23:22:51.040Z,4.53
2023-05-06T23:25:20.535Z,3.80
2023-05-06T23:27:49.674Z,4.13
2023-05-06T23:30:19.039Z,4.10
2023-05-06T23:32:49.889Z,4.60
2023-05-06T23:35:19.164Z,4.17
2023-05-06T23:37:48.351Z,4.37
2023-05-06T23:40:17.516Z,4.40
2023-05-06T23:42:46.735Z,4.20
2023-05-06T23:45:15.933Z,3.83
2023-05-06T23:47:46.500Z,4.00
2023-05-06T23:50:17.188Z,3.87
2023-05-06T23:52:46.562Z,3.73
2023-05-06T23:55:15.672Z,4.40
2023-05-06T23:57:44.935Z,3.90
